Terminal Aerodrome Forecast
Issued by NWS

Home | Current Version | Previous Version | Text Only | Print | Product List | Glossary On
Versions: 1 2 3 4 5 6 7 8 9 10 11 12 13 14 15 16 17 18 19 20 21 22 23 24
000
FTUS45 KBYZ 262333
TAFLVM
TAF
KLVM 262333Z 2700/2724 32009KT P6SM BKN050
     FM270300 24008KT P6SM SCT100
     FM270600 24015KT P6SM SCT100
     FM271000 22020G30KT P6SM SCT100=

USA.gov is the U.S. government's official web portal to all federal, state and local government web resources and services.